Time;durP1;ratioP1;P1;durP2;ratioP2;P2;SDS_P1;SDS_P2;PMS_P1;PMS_P2;Temp;Humidity;BMP_temperature;BMP_pressure;BME280_temperature;BME280_humidity;BME280_pressure;Samples;Min_cycle;Max_cycle;Signal;HPM_P1;HPM_P2
2021/10/21 00:00:23;;;;;;;8.70;3.40;;;16.90;99.90;;;17.34;78.09;99338.47;5062096;28;20195;-70
2021/10/21 00:02:50;;;;;;;9.10;3.35;;;16.90;99.90;;;17.32;78.30;99335.13;5059899;28;20262;-69
2021/10/21 00:05:16;;;;;;;9.02;3.70;;;16.80;99.90;;;17.30;78.21;99318.53;5060698;28;20212;-68
2021/10/21 00:07:43;;;;;;;8.23;3.33;;;16.80;99.90;;;17.28;78.25;99317.81;5067010;28;20192;-69
2021/10/21 00:10:11;;;;;;;8.45;3.50;;;16.80;99.90;;;17.28;78.55;99323.13;5064250;28;20196;-69
2021/10/21 00:12:38;;;;;;;9.88;3.55;;;16.80;99.90;;;17.27;78.52;99321.47;5057813;28;20206;-71
2021/10/21 00:15:08;;;;;;;12.10;3.63;;;16.80;99.90;;;17.25;78.67;99315.47;5063084;28;20231;-69
2021/10/21 00:17:37;;;;;;;10.13;3.70;;;16.70;99.90;;;17.24;78.50;99295.28;5065852;28;20278;-69
2021/10/21 00:20:09;;;;;;;10.00;3.72;;;16.70;99.90;;;17.24;78.36;99292.63;5076944;28;20187;-70
2021/10/21 00:22:37;;;;;;;8.38;3.03;;;16.70;99.90;;;17.23;78.75;99290.94;5077753;28;20200;-70
2021/10/21 00:25:05;;;;;;;11.18;3.55;;;16.70;99.90;;;17.23;78.71;99282.19;5069055;28;20312;-70
2021/10/21 00:27:32;;;;;;;8.10;3.38;;;16.70;99.90;;;17.23;78.93;99283.00;5069029;28;20271;-70
2021/10/21 00:29:59;;;;;;;7.95;3.58;;;16.70;99.90;;;17.22;78.58;99272.56;5071440;28;20199;-69
2021/10/21 00:32:26;;;;;;;8.50;3.40;;;16.70;99.90;;;17.21;78.90;99273.56;5065364;28;20663;-70
2021/10/21 00:34:54;;;;;;;8.43;3.60;;;16.70;99.90;;;17.21;78.61;99277.03;5077101;28;20208;-70
2021/10/21 00:37:21;;;;;;;9.15;3.60;;;16.70;99.90;;;17.21;79.04;99277.03;5063532;28;21061;-70
2021/10/21 00:39:47;;;;;;;9.63;3.58;;;16.70;99.90;;;17.20;79.13;99278.00;5071088;28;20183;-71
2021/10/21 00:42:14;;;;;;;9.93;3.90;;;16.70;99.90;;;17.22;78.96;99267.28;5076441;28;20689;-69
2021/10/21 00:44:41;;;;;;;9.98;3.70;;;16.70;99.90;;;17.22;79.06;99268.13;5075441;28;20221;-69
2021/10/21 00:47:08;;;;;;;9.65;3.33;;;16.70;99.90;;;17.22;79.21;99254.91;5072408;28;20726;-70
2021/10/21 00:49:35;;;;;;;14.10;4.30;;;16.70;99.90;;;17.23;78.79;99245.19;5075418;28;20689;-70
2021/10/21 00:52:04;;;;;;;10.40;4.30;;;16.70;99.90;;;17.22;78.76;99249.63;5068288;28;20203;-69
2021/10/21 00:54:31;;;;;;;11.80;6.00;;;16.70;99.90;;;17.21;79.07;99247.94;5060781;28;20209;-70
2021/10/21 00:56:58;;;;;;;9.88;3.83;;;16.70;99.90;;;17.21;78.82;99241.81;5074508;28;20187;-69
2021/10/21 00:59:29;;;;;;;9.35;3.50;;;16.70;99.90;;;17.20;79.24;99233.06;5063273;28;20288;-70
2021/10/21 01:01:57;;;;;;;9.05;3.42;;;16.70;99.90;;;17.20;79.20;99227.75;5067064;28;20253;-70
2021/10/21 01:04:23;;;;;;;8.15;3.17;;;16.70;99.90;;;17.19;78.89;99218.16;5071619;28;20209;-70
2021/10/21 01:06:50;;;;;;;8.98;3.75;;;16.70;99.90;;;17.19;79.30;99212.88;5065820;28;20262;-70
2021/10/21 01:09:19;;;;;;;9.93;3.65;;;16.70;99.90;;;17.18;78.95;99197.97;5063632;28;20812;-69
2021/10/21 01:11:46;;;;;;;8.90;3.35;;;16.70;99.90;;;17.17;79.42;99193.66;5073589;28;20257;-70
2021/10/21 01:14:13;;;;;;;8.00;3.60;;;16.70;99.90;;;17.17;79.18;99190.19;5076245;28;20210;-69
2021/10/21 01:16:40;;;;;;;11.52;3.58;;;16.70;99.90;;;17.15;79.12;99178.91;5063838;28;20201;-70
2021/10/21 01:19:18;;;;;;;11.52;3.40;;;16.70;99.90;;;17.14;79.20;99162.22;5068040;28;20184;-70
2021/10/21 01:21:50;;;;;;;8.93;3.72;;;16.70;99.90;;;17.14;79.18;99162.22;5066764;28;20202;-69
2021/10/21 01:24:17;;;;;;;8.85;3.42;;;16.70;99.90;;;17.14;79.26;99145.50;5067814;28;20239;-70
2021/10/21 01:26:45;;;;;;;10.13;3.60;;;16.70;99.90;;;17.14;79.20;99133.13;5056960;28;20207;-69
2021/10/21 01:29:12;;;;;;;8.40;3.55;;;16.60;99.90;;;17.14;79.17;99140.22;5064876;28;20199;-68
2021/10/21 01:31:39;;;;;;;9.50;3.60;;;16.70;99.90;;;17.15;79.70;99131.31;5079610;28;20192;-71
2021/10/21 01:34:08;;;;;;;8.90;3.40;;;16.70;99.90;;;17.17;79.53;99138.13;5069553;28;20212;-69
2021/10/21 01:36:35;;;;;;;10.00;3.60;;;16.70;99.90;;;17.16;79.29;99117.94;5063033;28;20234;-71
2021/10/21 01:39:06;;;;;;;7.70;3.08;;;16.70;99.90;;;17.18;79.49;99110.72;5060141;28;20193;-69
2021/10/21 01:41:33;;;;;;;8.68;3.22;;;16.70;99.90;;;17.18;79.27;99110.72;5065976;28;20596;-72
2021/10/21 01:44:00;;;;;;;8.38;3.30;;;16.70;99.90;;;17.18;79.58;99102.78;5072408;28;20567;-68
2021/10/21 01:46:27;;;;;;;9.88;3.40;;;16.70;99.90;;;17.19;79.59;99085.97;5064826;28;20195;-71
2021/10/21 01:48:54;;;;;;;8.65;3.15;;;16.70;99.90;;;17.18;79.36;99073.69;5067710;28;20191;-70
2021/10/21 01:51:21;;;;;;;9.38;3.30;;;16.70;99.90;;;17.17;79.59;99061.47;5059369;28;20204;-69
2021/10/21 01:53:48;;;;;;;9.50;3.45;;;16.70;99.90;;;17.17;79.56;99044.75;5064255;28;20756;-71
2021/10/21 01:56:17;;;;;;;9.85;3.88;;;16.70;99.90;;;17.17;79.98;99047.38;5053336;28;20220;-69
2021/10/21 01:58:44;;;;;;;8.90;3.42;;;16.60;99.90;;;17.14;79.63;99022.09;5060359;28;20199;-70
2021/10/21 02:01:11;;;;;;;8.00;3.45;;;16.70;99.90;;;17.14;79.89;99015.94;5063622;28;20219;-70
2021/10/21 02:03:37;;;;;;;7.35;2.92;;;16.70;99.90;;;17.14;79.79;99006.22;5059171;28;20211;-70
2021/10/21 02:06:04;;;;;;;9.95;3.22;;;16.70;99.90;;;17.14;79.81;99003.56;5068607;28;20606;-69
2021/10/21 02:08:31;;;;;;;9.20;2.95;;;16.70;99.90;;;17.15;79.49;98981.44;5073391;28;20200;-70
2021/10/21 02:10:57;;;;;;;8.00;2.90;;;16.70;99.90;;;17.15;79.72;98989.38;5067531;28;20192;-69
2021/10/21 02:13:26;;;;;;;10.00;2.95;;;16.70;99.90;;;17.17;79.33;98978.66;5060219;28;20732;-69
2021/10/21 02:15:53;;;;;;;8.57;2.90;;;16.70;99.90;;;17.17;79.54;98982.13;5081088;28;20703;-70
2021/10/21 02:18:20;;;;;;;7.82;2.47;;;16.70;99.90;;;17.18;79.39;98978.50;5070563;28;21373;-71
2021/10/21 02:20:47;;;;;;;9.27;3.00;;;16.70;99.90;;;17.21;78.98;98950.97;5055245;28;20218;-69
2021/10/21 02:23:14;;;;;;;10.27;2.88;;;16.70;99.90;;;17.22;79.21;98965.84;5064409;28;20731;-69
2021/10/21 02:25:41;;;;;;;10.23;2.83;;;16.70;99.90;;;17.22;78.66;98928.81;5060153;28;20216;-70
2021/10/21 02:28:07;;;;;;;6.53;2.55;;;16.80;99.90;;;17.23;78.77;98923.38;5065487;28;20199;-69
2021/10/21 02:30:36;;;;;;;6.95;2.30;;;16.80;99.90;;;17.24;78.67;98919.78;5063084;28;20189;-73
2021/10/21 02:33:02;;;;;;;7.45;2.33;;;16.80;99.90;;;17.26;78.02;98901.94;5068466;28;20249;-71
2021/10/21 02:35:29;;;;;;;6.55;2.30;;;16.80;99.90;;;17.26;78.18;98885.25;5066217;28;20747;-70
2021/10/21 02:37:56;;;;;;;7.45;2.50;;;16.80;99.90;;;17.27;77.54;98881.63;5072218;28;20240;-69
2021/10/21 02:40:22;;;;;;;7.57;2.67;;;16.80;99.90;;;17.28;77.56;98884.13;5085493;28;20196;-68
2021/10/21 02:42:49;;;;;;;7.80;2.42;;;16.80;99.90;;;17.26;77.36;98891.34;5069020;28;20672;-70
2021/10/21 02:45:16;;;;;;;5.95;2.03;;;16.80;99.90;;;17.26;77.33;98891.34;5066730;28;20204;-69
2021/10/21 02:47:45;;;;;;;7.47;2.55;;;16.80;99.90;;;17.26;77.29;98869.38;5061800;28;20195;-69
2021/10/21 02:50:12;;;;;;;8.82;2.20;;;16.80;99.90;;;17.24;77.43;98879.28;5063776;28;20277;-70
2021/10/21 02:52:39;;;;;;;6.25;2.08;;;16.80;99.90;;;17.25;77.17;98852.69;5071938;28;20201;-70
2021/10/21 02:55:07;;;;;;;6.40;2.40;;;16.80;99.90;;;17.25;77.12;98838.63;5067935;28;20208;-69
2021/10/21 02:57:34;;;;;;;6.15;2.20;;;16.80;99.90;;;17.24;77.04;98851.03;5061493;28;20192;-70
2021/10/21 03:00:01;;;;;;;6.38;2.20;;;16.80;99.90;;;17.24;76.96;98874.81;5059546;28;20254;-69
2021/10/21 03:02:27;;;;;;;6.85;2.30;;;16.80;99.90;;;17.24;77.00;98852.81;5068315;28;20195;-70
2021/10/21 03:04:56;;;;;;;5.65;1.98;;;16.80;99.90;;;17.24;76.66;98861.59;5070430;28;20203;-70
2021/10/21 03:07:22;;;;;;;5.25;1.77;;;16.80;99.90;;;17.24;76.71;98845.75;5068584;28;20195;-70
2021/10/21 03:09:49;;;;;;;4.90;1.90;;;16.80;99.90;;;17.25;77.03;98842.09;5064385;28;20657;-70
2021/10/21 03:12:16;;;;;;;6.32;2.05;;;16.80;99.90;;;17.26;77.20;98842.94;5063541;28;20211;-68
2021/10/21 03:14:43;;;;;;;6.53;2.13;;;16.80;99.90;;;17.24;77.30;98829.03;5077087;28;20220;-69
2021/10/21 03:17:10;;;;;;;5.88;2.08;;;16.80;99.90;;;17.24;77.13;98818.44;5068307;28;20654;-69
2021/10/21 03:19:36;;;;;;;6.40;2.05;;;16.80;99.90;;;17.23;77.20;98812.31;5074022;28;20203;-69
2021/10/21 03:22:05;;;;;;;7.53;2.33;;;16.80;99.90;;;17.23;77.18;98796.47;5063428;28;20195;-71
2021/10/21 03:24:32;;;;;;;4.75;1.80;;;16.80;99.90;;;17.23;77.47;98785.06;5070060;28;20266;-70
2021/10/21 03:26:59;;;;;;;5.97;2.35;;;16.70;99.90;;;17.23;77.65;98790.34;5055015;28;20185;-69
2021/10/21 03:29:26;;;;;;;5.15;2.00;;;16.80;99.90;;;17.22;77.69;98768.38;5063649;28;20267;-69
2021/10/21 03:31:53;;;;;;;7.50;2.28;;;16.80;99.90;;;17.22;77.81;98786.88;5071002;28;20192;-70
2021/10/21 03:34:19;;;;;;;6.72;2.03;;;16.80;99.90;;;17.20;78.01;98780.88;5070668;28;20234;-69
2021/10/21 03:36:46;;;;;;;7.88;2.03;;;16.80;99.90;;;17.22;78.04;98786.88;5065242;28;20204;-70
2021/10/21 03:39:14;;;;;;;5.65;1.88;;;16.80;99.90;;;17.22;77.76;98773.66;5068110;28;20194;-69
2021/10/21 03:41:42;;;;;;;6.43;1.80;;;16.70;99.90;;;17.21;78.13;98777.25;5066819;28;20200;-69
2021/10/21 03:44:08;;;;;;;7.80;2.60;;;16.70;99.90;;;17.21;77.86;98764.03;5060500;28;20282;-69
2021/10/21 03:46:36;;;;;;;5.93;2.10;;;16.80;99.90;;;17.22;77.88;98754.31;5058060;28;20254;-70
2021/10/21 03:49:03;;;;;;;7.35;2.30;;;16.80;99.90;;;17.22;77.73;98747.22;5071133;28;20188;-69
2021/10/21 03:51:30;;;;;;;5.65;1.90;;;16.80;99.90;;;17.22;77.70;98747.22;5065755;28;20211;-70
2021/10/21 03:53:57;;;;;;;6.63;2.05;;;16.70;99.90;;;17.21;77.75;98737.59;5069001;28;20718;-67
2021/10/21 03:56:25;;;;;;;7.40;2.10;;;16.80;99.90;;;17.22;77.10;98736.63;5063800;28;20257;-71
2021/10/21 03:58:52;;;;;;;7.85;2.10;;;16.80;99.90;;;17.24;76.74;98731.19;5061670;28;20686;-70
2021/10/21 04:01:19;;;;;;;6.85;2.00;;;16.80;99.90;;;17.24;76.39;98713.53;5065603;28;20202;-69
2021/10/21 04:03:45;;;;;;;7.18;2.53;;;16.80;99.90;;;17.24;76.26;98713.53;5061782;28;20909;-69
2021/10/21 04:06:12;;;;;;;6.05;2.20;;;16.80;99.90;;;17.25;75.88;98704.59;5063359;28;20250;-72
2021/10/21 04:08:39;;;;;;;5.90;1.80;;;16.80;99.90;;;17.25;75.53;98707.25;5076257;28;20192;-69
2021/10/21 04:11:06;;;;;;;6.20;1.67;;;16.80;99.90;;;17.26;74.87;98706.25;5080796;28;20196;-69
2021/10/21 04:13:34;;;;;;;6.40;1.75;;;16.80;99.90;;;17.28;74.37;98737.88;5067600;28;20254;-71
2021/10/21 04:16:01;;;;;;;6.35;1.67;;;16.80;99.90;;;17.28;73.72;98777.53;5071561;28;20203;-72
2021/10/21 04:18:27;;;;;;;7.22;2.35;;;16.80;99.90;;;17.26;73.67;98695.69;5085634;28;20192;-71
2021/10/21 04:20:54;;;;;;;7.28;1.85;;;16.80;99.90;;;17.16;74.51;98647.31;5067949;28;20192;-69
2021/10/21 04:23:21;;;;;;;4.45;1.50;;;16.50;99.90;;;16.96;75.89;98709.22;5065127;28;20222;-70
2021/10/21 04:25:48;;;;;;;5.00;1.45;;;16.20;99.90;;;16.77;77.10;98697.94;5076730;28;20683;-70
2021/10/21 04:28:16;;;;;;;7.88;1.60;;;16.00;99.90;;;16.63;77.83;98706.34;5077654;28;20204;-70
2021/10/21 04:30:44;;;;;;;6.25;1.60;;;15.70;99.90;;;16.52;78.24;98680.09;5071377;28;20282;-70
2021/10/21 04:33:11;;;;;;;4.03;1.40;;;15.60;99.90;;;16.43;78.70;98662.47;5070954;28;20211;-70
2021/10/21 04:35:37;;;;;;;7.15;1.70;;;15.40;99.90;;;16.35;79.23;98673.75;5070065;28;20208;-70
2021/10/21 04:38:05;;;;;;;4.88;1.50;;;15.30;99.90;;;16.26;79.65;98650.84;5068414;28;20188;-70
2021/10/21 04:40:32;;;;;;;4.97;1.25;;;15.20;99.90;;;16.16;80.17;98590.19;5073450;28;20662;-69
2021/10/21 04:42:59;;;;;;;4.18;1.30;;;15.10;99.90;;;16.09;80.12;98583.00;5062196;28;20188;-71
2021/10/21 04:45:26;;;;;;;6.53;1.95;;;15.00;99.90;;;16.04;80.51;98587.88;5075277;28;20255;-69
2021/10/21 04:47:57;;;;;;;3.95;1.27;;;15.00;99.90;;;16.01;80.54;98607.47;5066926;28;20193;-69
2021/10/21 04:50:24;;;;;;;2.90;1.23;;;14.90;99.90;;;15.98;80.49;98604.28;5064556;28;20202;-69
2021/10/21 04:52:52;;;;;;;3.72;1.50;;;14.90;99.90;;;15.95;80.64;98601.94;5055591;28;20655;-69
2021/10/21 04:55:21;;;;;;;5.78;1.30;;;14.90;99.90;;;15.95;80.68;98586.09;5061437;28;20239;-70
2021/10/21 04:57:48;;;;;;;4.05;1.10;;;14.90;99.90;;;15.94;80.63;98545.69;5077038;28;20236;-70
2021/10/21 05:00:15;;;;;;;4.05;1.27;;;14.90;99.90;;;15.93;80.33;98506.25;5057720;28;20196;-71
2021/10/21 05:02:42;;;;;;;6.43;1.35;;;14.90;99.90;;;15.92;80.37;98492.25;5084520;28;20223;-70
2021/10/21 05:05:10;;;;;;;4.50;1.13;;;15.00;99.90;;;15.91;80.50;98482.66;5067528;28;20212;-69
2021/10/21 05:07:38;;;;;;;4.68;1.23;;;15.00;99.90;;;15.94;80.27;98457.81;5069996;28;20218;-69
2021/10/21 05:10:06;;;;;;;4.45;1.35;;;15.00;99.90;;;15.95;80.32;98472.66;5066736;28;20219;-69
2021/10/21 05:12:34;;;;;;;4.60;1.17;;;15.00;99.90;;;15.95;80.31;98478.75;5057912;28;20211;-68
2021/10/21 05:15:00;;;;;;;6.25;1.20;;;15.10;99.90;;;15.96;80.46;98474.28;5075193;28;20216;-69
2021/10/21 05:17:27;;;;;;;3.85;1.27;;;15.10;99.90;;;15.98;80.35;98467.91;5052199;28;20220;-69
2021/10/21 05:19:54;;;;;;;4.57;1.25;;;15.10;99.90;;;15.98;80.04;98460.00;5054588;28;20275;-72
2021/10/21 05:22:22;;;;;;;5.70;1.30;;;15.10;99.90;;;16.00;80.42;98459.84;5058587;28;20188;-72
2021/10/21 05:24:49;;;;;;;5.30;1.50;;;15.20;99.90;;;16.03;80.36;98481.50;5055246;28;20234;-69
2021/10/21 05:27:16;;;;;;;5.05;1.98;;;15.30;99.90;;;16.02;79.82;98487.75;5071000;28;20198;-69
2021/10/21 05:29:42;;;;;;;6.75;1.80;;;15.30;99.90;;;16.03;79.97;98470.09;5092509;28;20192;-68
2021/10/21 05:32:09;;;;;;;4.68;1.33;;;15.30;99.90;;;16.04;80.04;98477.06;5058302;28;20258;-70
2021/10/21 05:34:39;;;;;;;5.28;1.20;;;15.40;99.90;;;16.05;80.32;98470.78;5080810;28;20216;-69
2021/10/21 05:37:07;;;;;;;3.60;1.20;;;15.40;99.90;;;16.07;79.88;98472.31;5060846;28;20204;-68
2021/10/21 05:39:35;;;;;;;3.58;1.38;;;15.40;99.90;;;16.10;80.12;98463.25;5063173;28;20306;-68
2021/10/21 05:42:02;;;;;;;6.45;1.25;;;15.50;99.90;;;16.12;79.86;98490.34;5061250;28;20654;-69
2021/10/21 05:44:30;;;;;;;4.00;1.20;;;15.50;99.90;;;16.14;79.93;98472.53;5052882;28;20254;-69
2021/10/21 05:46:58;;;;;;;4.00;1.25;;;15.50;99.90;;;16.17;79.74;98485.44;5052083;28;20276;-69
2021/10/21 05:49:25;;;;;;;7.20;1.40;;;15.50;99.90;;;16.19;79.55;98480.84;5074466;28;20197;-69
2021/10/21 05:51:52;;;;;;;3.75;1.30;;;15.60;99.90;;;16.20;79.53;98478.06;5067327;28;20193;-69
2021/10/21 05:54:18;;;;;;;3.35;1.08;;;15.60;99.90;;;16.24;79.59;98462.75;5056386;28;20221;-71
2021/10/21 05:56:46;;;;;;;4.68;1.30;;;15.70;99.90;;;16.28;79.15;98464.09;5078417;28;20716;-69
2021/10/21 05:59:13;;;;;;;4.75;1.40;;;15.70;99.90;;;16.33;78.97;98459.19;5092615;28;20211;-67
2021/10/21 06:01:40;;;;;;;4.65;1.25;;;15.80;99.90;;;16.38;78.33;98445.56;5060340;28;20205;-69
2021/10/21 06:04:07;;;;;;;3.58;1.20;;;15.80;99.90;;;16.42;78.01;98442.47;5063221;28;20257;-70
2021/10/21 06:06:37;;;;;;;3.70;1.25;;;15.80;99.90;;;16.46;77.95;98445.69;5068395;28;20200;-68
2021/10/21 06:09:04;;;;;;;4.63;1.27;;;15.90;99.90;;;16.49;77.09;98446.22;5059839;28;20203;-69
2021/10/21 06:11:33;;;;;;;4.97;1.40;;;15.90;99.90;;;16.53;76.81;98426.41;5058428;28;20203;-69
2021/10/21 06:14:02;;;;;;;2.35;0.88;;;16.00;99.90;;;16.58;76.77;98432.06;5064308;28;20303;-68
2021/10/21 06:16:28;;;;;;;3.05;1.10;;;16.00;99.90;;;16.60;76.29;98432.75;5066246;28;20218;-69
2021/10/21 06:18:55;;;;;;;3.97;0.95;;;16.00;99.90;;;16.62;75.91;98428.16;5068954;28;20185;-69
2021/10/21 06:21:23;;;;;;;3.83;1.13;;;16.00;99.90;;;16.65;75.31;98438.41;5058060;28;20192;-72
2021/10/21 06:23:51;;;;;;;5.88;1.30;;;16.10;99.90;;;16.66;74.90;98426.84;5060345;28;20223;-71
2021/10/21 06:26:19;;;;;;;2.35;1.00;;;16.10;99.90;;;16.67;74.67;98417.97;5063879;28;20204;-69
2021/10/21 06:28:47;;;;;;;2.75;1.10;;;16.10;99.90;;;16.68;74.53;98411.69;5069603;28;20696;-68
2021/10/21 06:31:16;;;;;;;4.13;1.20;;;16.10;99.90;;;16.68;74.37;98419.63;5060709;28;20195;-67
2021/10/21 06:33:44;;;;;;;1.75;1.00;;;16.10;99.90;;;16.67;74.28;98425.91;5077825;28;20224;-71
2021/10/21 06:36:11;;;;;;;2.42;0.90;;;16.20;99.90;;;16.68;73.92;98426.75;5067739;28;20212;-68
2021/10/21 06:38:39;;;;;;;3.53;1.10;;;16.20;99.90;;;16.68;74.12;98411.69;5061289;28;20758;-71
2021/10/21 06:41:06;;;;;;;2.40;1.08;;;16.20;99.90;;;16.70;73.63;98427.38;5064212;28;20211;-70
2021/10/21 06:43:34;;;;;;;5.40;1.30;;;16.20;99.90;;;16.70;73.50;98444.06;5060372;28;20207;-69
2021/10/21 06:46:01;;;;;;;2.60;1.10;;;16.20;99.90;;;16.71;73.20;98445.72;5061155;28;20188;-71
2021/10/21 06:48:29;;;;;;;4.57;1.15;;;16.20;99.90;;;16.72;73.34;98447.41;5062213;28;20227;-70
2021/10/21 06:50:56;;;;;;;3.13;1.08;;;16.30;99.90;;;16.73;72.54;98438.47;5060433;28;20188;-70
2021/10/21 06:53:23;;;;;;;6.47;1.38;;;16.30;99.90;;;16.74;72.25;98442.81;5055060;28;21673;-69
2021/10/21 06:55:50;;;;;;;4.10;1.02;;;16.30;99.90;;;16.75;71.95;98441.81;5060770;28;20196;-70
2021/10/21 06:58:16;;;;;;;4.72;1.30;;;16.30;99.90;;;16.74;71.53;98434.88;5058756;28;20196;-71
2021/10/21 07:00:43;;;;;;;7.63;1.55;;;16.30;99.90;;;16.73;71.50;98449.03;5082332;28;20246;-69
2021/10/21 07:03:10;;;;;;;3.58;1.15;;;16.30;99.90;;;16.73;70.65;98459.63;5057858;28;20192;-70
2021/10/21 07:05:40;;;;;;;8.10;1.20;;;16.30;99.90;;;16.70;69.23;98452.00;5061267;28;21403;-70
2021/10/21 07:08:08;;;;;;;6.57;1.10;;;16.30;99.90;;;16.67;68.05;98448.81;5056110;28;20193;-70
2021/10/21 07:10:35;;;;;;;7.57;1.00;;;16.20;99.90;;;16.63;67.45;98458.88;5064268;28;20580;-70
2021/10/21 07:13:04;;;;;;;5.35;1.10;;;16.20;99.90;;;16.58;66.20;98439.19;5063111;28;20196;-71
2021/10/21 07:15:32;;;;;;;4.13;0.95;;;16.10;99.90;;;16.54;64.65;98459.78;5059871;28;20253;-69
2021/10/21 07:17:59;;;;;;;6.38;1.10;;;16.10;99.90;;;16.50;64.48;98444.38;5054177;28;20599;-70
2021/10/21 07:20:26;;;;;;;5.90;0.90;;;16.00;99.90;;;16.48;63.39;98465.66;5054175;28;20744;-72
2021/10/21 07:22:54;;;;;;;6.35;1.33;;;16.00;99.90;;;16.43;63.25;98467.88;5053311;28;20729;-71
2021/10/21 07:25:23;;;;;;;5.55;0.88;;;16.00;99.90;;;16.39;63.02;98487.66;5062030;28;20270;-71
2021/10/21 07:27:50;;;;;;;4.75;1.08;;;15.90;99.90;;;16.35;62.98;98486.28;5065103;28;20200;-71
2021/10/21 07:30:17;;;;;;;6.47;1.00;;;15.90;99.90;;;16.31;63.47;98488.41;5062384;28;20184;-71
2021/10/21 07:32:44;;;;;;;5.75;0.70;;;15.90;99.90;;;16.28;63.31;98493.97;5066861;28;20191;-72
2021/10/21 07:35:11;;;;;;;7.22;1.63;;;15.80;99.90;;;16.28;62.79;98487.84;5064172;28;20215;-73
2021/10/21 07:37:39;;;;;;;5.25;1.25;;;15.80;99.90;;;16.26;62.23;98484.53;5058996;28;20878;-73
2021/10/21 07:40:10;;;;;;;3.63;1.02;;;15.80;99.90;;;16.25;62.26;98504.84;5060068;28;20193;-70
2021/10/21 07:42:39;;;;;;;8.32;0.95;;;15.80;99.90;;;16.24;62.24;98482.03;5052989;28;20230;-73
2021/10/21 07:45:08;;;;;;;7.10;0.95;;;15.80;99.90;;;16.24;62.25;98492.59;5058424;28;20212;-72
2021/10/21 07:47:35;;;;;;;10.27;1.08;;;15.80;99.90;;;16.23;61.97;98490.97;5053333;28;20667;-71
2021/10/21 07:50:03;;;;;;;5.00;1.13;;;15.80;99.90;;;16.23;61.84;98493.59;5073586;28;20187;-72
2021/10/21 07:52:30;;;;;;;5.13;1.13;;;15.80;99.90;;;16.26;61.73;98492.44;5062922;28;20188;-72
2021/10/21 07:54:57;;;;;;;6.38;1.20;;;15.80;99.90;;;16.27;61.38;98480.94;5070661;28;20207;-71
2021/10/21 07:57:26;;;;;;;9.30;1.65;;;15.80;99.90;;;16.28;61.32;98493.13;5053828;28;20201;-71
2021/10/21 07:59:53;;;;;;;6.97;0.90;;;15.80;99.90;;;16.28;61.11;98487.84;5066755;28;20199;-75
2021/10/21 08:02:20;;;;;;;9.57;0.82;;;15.80;99.90;;;16.27;60.91;98478.28;5058033;28;20192;-73
2021/10/21 08:04:47;;;;;;;6.30;0.90;;;15.80;99.90;;;16.23;60.21;98483.03;5059842;28;20211;-72
2021/10/21 08:07:13;;;;;;;3.95;1.20;;;15.80;99.90;;;16.23;59.97;98476.91;5057382;28;20192;-72
2021/10/21 08:09:40;;;;;;;4.82;0.88;;;15.80;99.90;;;16.24;60.40;98478.59;5083236;28;20859;-71
2021/10/21 08:12:08;;;;;;;3.75;0.88;;;15.80;99.90;;;16.24;60.28;98481.22;5060810;28;20250;-71
2021/10/21 08:14:36;;;;;;;5.13;0.77;;;15.80;99.90;;;16.26;60.19;98482.72;5065360;28;20223;-74
2021/10/21 08:17:04;;;;;;;3.75;0.93;;;15.90;99.90;;;16.29;59.87;98493.00;5067073;28;20295;-73
2021/10/21 08:19:31;;;;;;;8.57;1.20;;;15.90;99.90;;;16.30;59.77;98467.44;5059433;28;20192;-73
2021/10/21 08:21:58;;;;;;;4.28;0.82;;;15.90;99.90;;;16.34;59.41;98500.50;5060266;28;20330;-73
2021/10/21 08:24:25;;;;;;;6.72;1.00;;;15.90;99.90;;;16.39;59.65;98474.47;5055096;28;20220;-72
2021/10/21 08:26:54;;;;;;;4.60;0.82;;;16.00;99.90;;;16.40;59.34;98476.13;5057158;28;20188;-73
2021/10/21 08:29:23;;;;;;;8.35;0.93;;;16.00;99.90;;;16.43;59.31;98445.97;5073517;28;20189;-72
2021/10/21 08:31:53;;;;;;;6.70;0.82;;;16.00;99.90;;;16.42;59.28;98460.97;5060840;28;20192;-71
2021/10/21 08:34:19;;;;;;;7.03;0.93;;;16.00;99.90;;;16.43;59.05;98461.81;5059687;28;20216;-71
2021/10/21 08:36:46;;;;;;;4.47;0.90;;;16.00;99.90;;;16.41;59.13;98454.00;5070017;28;20204;-73
2021/10/21 08:39:13;;;;;;;4.20;0.80;;;16.00;99.90;;;16.42;59.26;98474.16;5055556;28;20669;-71
2021/10/21 08:41:42;;;;;;;6.13;1.20;;;16.00;99.90;;;16.46;58.93;98456.25;5068761;28;20678;-72
2021/10/21 08:44:10;;;;;;;9.43;1.10;;;16.10;99.90;;;16.48;58.80;98468.28;5056015;28;20219;-73
2021/10/21 08:46:39;;;;;;;4.50;0.70;;;16.10;99.90;;;16.51;58.48;98454.78;5066084;28;20249;-73
2021/10/21 08:49:07;;;;;;;5.90;0.73;;;16.20;99.90;;;16.54;58.06;98457.16;5063606;28;20297;-72
2021/10/21 08:51:35;;;;;;;3.40;0.75;;;16.20;99.90;;;16.57;58.24;98422.50;5061321;28;20747;-72
2021/10/21 08:54:04;;;;;;;5.38;1.00;;;16.30;99.90;;;16.61;57.92;98444.16;5053116;28;21617;-74
2021/10/21 08:56:32;;;;;;;7.28;0.90;;;16.20;99.90;;;16.57;57.91;98459.47;5061501;28;20188;-75
2021/10/21 08:59:01;;;;;;;4.53;0.70;;;16.30;99.90;;;16.55;57.82;98448.25;5054799;28;20686;-75
2021/10/21 09:01:37;;;;;;;2.58;0.82;;;16.20;99.90;;;16.58;58.12;98449.75;5062227;28;20200;-74
2021/10/21 09:04:22;;;;;;;6.35;0.80;;;16.20;99.90;;;16.59;58.33;98444.31;5064420;28;20295;-74
2021/10/21 09:09:34;;;;;;;8.82;1.17;;;16.30;99.90;;;16.56;58.36;98465.72;5054974;28;20231;-73
2021/10/21 09:12:07;;;;;;;5.72;0.88;;;16.30;99.90;;;16.57;58.43;98448.06;5064132;28;20196;-75
2021/10/21 09:14:36;;;;;;;6.75;1.00;;;16.30;99.90;;;16.55;58.69;98453.53;5056971;28;20223;-74
2021/10/21 09:17:06;;;;;;;10.02;1.27;;;16.30;99.90;;;16.51;58.44;98440.78;5056315;28;20752;-74
2021/10/21 09:19:36;;;;;;;3.85;0.60;;;16.20;99.90;;;16.48;58.68;98476.22;5059730;28;20193;-73
2021/10/21 09:22:07;;;;;;;4.18;0.85;;;16.20;99.90;;;16.48;58.92;98465.66;5062074;28;20253;-74
2021/10/21 09:24:39;;;;;;;5.97;0.70;;;16.20;99.90;;;16.46;58.64;98454.41;5068182;28;20207;-74
2021/10/21 09:27:10;;;;;;;4.93;0.90;;;16.20;99.90;;;16.43;58.69;98477.63;5060393;28;20827;-74
2021/10/21 09:29:39;;;;;;;2.78;0.65;;;16.20;99.90;;;16.40;59.35;98460.28;5058770;28;20208;-74
2021/10/21 09:32:11;;;;;;;9.55;0.93;;;16.10;99.90;;;16.38;59.53;98462.22;5076087;28;20635;-74
2021/10/21 09:34:55;;;;;;;8.95;1.25;;;16.10;99.90;;;16.35;59.62;98467.81;5067910;28;20220;-74
2021/10/21 09:37:25;;;;;;;6.38;0.82;;;16.00;99.90;;;16.28;60.05;98469.38;5056611;28;20281;-74
2021/10/21 09:39:55;;;;;;;8.88;0.95;;;15.90;99.90;;;16.19;60.40;98471.09;5057358;28;20216;-74
2021/10/21 09:42:28;;;;;;;6.18;0.80;;;15.80;99.90;;;16.14;60.65;98472.53;5060133;28;20269;-74
2021/10/21 09:45:13;;;;;;;9.55;1.20;;;15.70;99.90;;;16.15;60.60;98471.56;5057544;28;20347;-74
2021/10/21 09:47:43;;;;;;;4.40;0.85;;;15.70;99.90;;;16.16;60.20;98466.13;5061636;28;21215;-73
2021/10/21 09:50:21;;;;;;;5.93;1.02;;;15.70;99.90;;;16.20;60.57;98474.56;5058777;28;20184;-75
2021/10/21 09:53:13;;;;;;;11.13;1.52;;;15.80;99.90;;;16.22;60.26;98456.78;5059085;28;20196;-74
2021/10/21 09:55:42;;;;;;;5.07;0.73;;;15.90;99.90;;;16.20;60.15;98471.94;5055121;28;20220;-74
2021/10/21 09:58:11;;;;;;;6.00;0.80;;;15.90;99.90;;;16.22;60.33;98497.22;5064965;28;20216;-74
2021/10/21 10:00:41;;;;;;;7.82;1.08;;;15.90;99.90;;;16.26;60.05;98503.00;5068095;28;20851;-74
2021/10/21 10:03:11;;;;;;;9.38;1.30;;;15.90;99.90;;;16.29;59.84;98497.47;5059450;28;20195;-74
2021/10/21 10:05:42;;;;;;;13.13;1.20;;;16.00;99.90;;;16.29;60.30;98481.63;5068699;28;20220;-73
2021/10/21 10:08:10;;;;;;;9.98;1.20;;;15.90;99.90;;;16.30;60.64;98499.09;5068279;28;20192;-75
2021/10/21 10:10:40;;;;;;;9.57;1.20;;;15.90;99.90;;;16.29;60.79;98500.09;5076743;28;20696;-74
2021/10/21 10:13:08;;;;;;;8.65;1.55;;;15.90;99.90;;;16.27;60.61;98508.16;5061347;28;21844;-71
2021/10/21 10:15:36;;;;;;;6.30;1.00;;;15.90;99.90;;;16.25;60.37;98527.75;5065569;28;20307;-72
2021/10/21 10:18:06;;;;;;;15.85;1.40;;;15.90;99.90;;;16.21;60.53;98527.22;5065893;28;20227;-73
2021/10/21 10:20:34;;;;;;;15.40;1.30;;;15.80;99.90;;;16.18;61.18;98530.16;5063761;28;20200;-74
2021/10/21 10:23:05;;;;;;;8.13;1.45;;;15.70;99.90;;;16.14;61.60;98536.69;5067946;28;20192;-74